sensor_id;sensor_type;location;lat;lon;timestamp;pressure;altitude;pressure_sealevel;temperature;humidity
67931;BME280;63902;52.000;5.954;2023-04-19T00:00:41;102366.09;;;9.11;74.61
67931;BME280;63902;52.000;5.954;2023-04-19T00:01:42;102369.59;;;9.15;74.99
67931;BME280;63902;52.000;5.954;2023-04-19T00:02:42;102370.44;;;9.18;74.52
67931;BME280;63902;52.000;5.954;2023-04-19T00:03:43;102338.00;;;8.98;75.20
67931;BME280;63902;52.000;5.954;2023-04-19T00:04:44;102357.25;;;9.14;75.05
67931;BME280;63902;52.000;5.954;2023-04-19T00:05:44;102362.53;;;9.17;74.79
67931;BME280;63902;52.000;5.954;2023-04-19T00:06:45;102370.47;;;9.15;76.88
67931;BME280;63902;52.000;5.954;2023-04-19T00:07:45;102370.47;;;9.17;75.47
67931;BME280;63902;52.000;5.954;2023-04-19T00:08:46;102366.94;;;9.16;74.86
67931;BME280;63902;52.000;5.954;2023-04-19T00:09:46;102370.47;;;9.15;75.56
67931;BME280;63902;52.000;5.954;2023-04-19T00:10:47;102340.66;;;8.98;75.15
67931;BME280;63902;52.000;5.954;2023-04-19T00:11:47;102366.09;;;9.11;74.92
67931;BME280;63902;52.000;5.954;2023-04-19T00:12:47;102374.06;;;9.10;74.74
67931;BME280;63902;52.000;5.954;2023-04-19T00:13:48;102370.53;;;9.09;76.00
67931;BME280;63902;52.000;5.954;2023-04-19T00:14:48;102368.78;;;9.08;75.43
67931;BME280;63902;52.000;5.954;2023-04-19T00:15:50;102371.44;;;9.07;75.59
67931;BME280;63902;52.000;5.954;2023-04-19T00:16:51;102327.59;;;8.81;75.85
67931;BME280;63902;52.000;5.954;2023-04-19T00:17:51;102356.56;;;8.95;75.75
67931;BME280;63902;52.000;5.954;2023-04-19T00:18:52;102354.84;;;8.91;76.36
67931;BME280;63902;52.000;5.954;2023-04-19T00:19:52;102368.84;;;9.02;76.06
67931;BME280;63902;52.000;5.954;2023-04-19T00:20:53;102332.91;;;8.78;76.78
67931;BME280;63902;52.000;5.954;2023-04-19T00:21:53;102332.88;;;8.83;76.91
67931;BME280;63902;52.000;5.954;2023-04-19T00:22:54;102368.00;;;9.00;76.98
67931;BME280;63902;52.000;5.954;2023-04-19T00:23:54;102374.19;;;8.99;77.15
67931;BME280;63902;52.000;5.954;2023-04-19T00:24:55;102345.19;;;8.85;76.73
67931;BME280;63902;52.000;5.954;2023-04-19T00:25:55;102357.50;;;8.91;76.36
67931;BME280;63902;52.000;5.954;2023-04-19T00:26:56;102351.38;;;8.86;77.31
67931;BME280;63902;52.000;5.954;2023-04-19T00:27:56;102356.66;;;8.86;76.95
67931;BME280;63902;52.000;5.954;2023-04-19T00:28:57;102363.66;;;8.90;77.31
67931;BME280;63902;52.000;5.954;2023-04-19T00:29:57;102365.47;;;8.88;77.29
67931;BME280;63902;52.000;5.954;2023-04-19T00:30:59;102346.16;;;8.73;76.69
67931;BME280;63902;52.000;5.954;2023-04-19T00:32:00;102356.69;;;8.83;76.67
67931;BME280;63902;52.000;5.954;2023-04-19T00:33:00;102364.63;;;8.83;76.53
67931;BME280;63902;52.000;5.954;2023-04-19T00:34:01;102347.97;;;8.70;76.14
67931;BME280;63902;52.000;5.954;2023-04-19T00:35:01;102357.63;;;8.77;76.39
67931;BME280;63902;52.000;5.954;2023-04-19T00:36:02;102363.78;;;8.76;76.92
67931;BME280;63902;52.000;5.954;2023-04-19T00:37:02;102358.53;;;8.74;77.12
67931;BME280;63902;52.000;5.954;2023-04-19T00:38:03;102355.00;;;8.72;77.50
67931;BME280;63902;52.000;5.954;2023-04-19T00:39:03;102356.78;;;8.70;79.08
67931;BME280;63902;52.000;5.954;2023-04-19T00:40:05;102356.78;;;8.70;78.46
67931;BME280;63902;52.000;5.954;2023-04-19T00:41:05;102353.28;;;8.68;78.52
67931;BME280;63902;52.000;5.954;2023-04-19T00:42:06;102357.72;;;8.66;77.64
67931;BME280;63902;52.000;5.954;2023-04-19T00:43:06;102349.81;;;8.63;77.56
67931;BME280;63902;52.000;5.954;2023-04-19T00:44:07;102348.03;;;8.62;77.35
67931;BME280;63902;52.000;5.954;2023-04-19T00:45:08;102348.94;;;8.61;78.99
67931;BME280;63902;52.000;5.954;2023-04-19T00:46:10;102350.69;;;8.59;78.12
67931;BME280;63902;52.000;5.954;2023-04-19T00:47:11;102349.88;;;8.57;77.51
67931;BME280;63902;52.000;5.954;2023-04-19T00:48:13;102349.00;;;8.55;77.91
67931;BME280;63902;52.000;5.954;2023-04-19T00:49:14;102344.56;;;8.54;78.34
67931;BME280;63902;52.000;5.954;2023-04-19T00:50:15;102348.97;;;8.54;77.83
67931;BME280;63902;52.000;5.954;2023-04-19T00:51:16;102341.91;;;8.54;78.68
67931;BME280;63902;52.000;5.954;2023-04-19T00:52:17;102346.34;;;8.54;78.54
67931;BME280;63902;52.000;5.954;2023-04-19T00:53:18;102345.47;;;8.53;78.89
67931;BME280;63902;52.000;5.954;2023-04-19T00:54:18;102311.19;;;8.38;80.54
67931;BME280;63902;52.000;5.954;2023-04-19T00:55:19;102325.28;;;8.44;79.36
67931;BME280;63902;52.000;5.954;2023-04-19T00:56:21;102339.28;;;8.56;78.67
67931;BME280;63902;52.000;5.954;2023-04-19T00:57:21;102345.47;;;8.55;78.36
67931;BME280;63902;52.000;5.954;2023-04-19T00:58:22;102338.41;;;8.54;80.35
67931;BME280;63902;52.000;5.954;2023-04-19T00:59:23;102342.81;;;8.53;78.72
67931;BME280;63902;52.000;5.954;2023-04-19T01:00:24;102317.34;;;8.37;78.93
67931;BME280;63902;52.000;5.954;2023-04-19T01:01:26;102339.31;;;8.51;78.24
67931;BME280;63902;52.000;5.954;2023-04-19T01:02:27;102328.75;;;8.48;78.61
67931;BME280;63902;52.000;5.954;2023-04-19T01:03:27;102334.03;;;8.48;78.78
67931;BME280;63902;52.000;5.954;2023-04-19T01:04:28;102337.56;;;8.50;79.41
67931;BME280;63902;52.000;5.954;2023-04-19T01:05:28;102327.84;;;8.50;79.04
67931;BME280;63902;52.000;5.954;2023-04-19T01:06:29;102334.91;;;8.50;78.60
67931;BME280;63902;52.000;5.954;2023-04-19T01:07:32;102323.53;;;8.43;78.44
67931;BME280;63902;52.000;5.954;2023-04-19T01:08:32;102343.75;;;8.49;78.73
67931;BME280;63902;52.000;5.954;2023-04-19T01:09:33;102341.13;;;8.49;79.01
67931;BME280;63902;52.000;5.954;2023-04-19T01:10:33;102330.53;;;8.49;79.32
67931;BME280;63902;52.000;5.954;2023-04-19T01:11:34;102327.88;;;8.49;78.31
67931;BME280;63902;52.000;5.954;2023-04-19T01:12:34;102333.16;;;8.50;80.59
67931;BME280;63902;52.000;5.954;2023-04-19T01:13:35;102334.00;;;8.51;80.24
67931;BME280;63902;52.000;5.954;2023-04-19T01:14:35;102327.84;;;8.50;78.67
67931;BME280;63902;52.000;5.954;2023-04-19T01:15:36;102339.34;;;8.49;78.89
67931;BME280;63902;52.000;5.954;2023-04-19T01:16:38;102326.13;;;8.48;79.91
67931;BME280;63902;52.000;5.954;2023-04-19T01:17:38;102334.91;;;8.48;79.42
67931;BME280;63902;52.000;5.954;2023-04-19T01:18:39;102320.00;;;8.41;79.89
67931;BME280;63902;52.000;5.954;2023-04-19T01:19:39;102329.63;;;8.48;79.73
67931;BME280;63902;52.000;5.954;2023-04-19T01:20:40;102322.66;;;8.40;78.92
67931;BME280;63902;52.000;5.954;2023-04-19T01:21:40;102335.81;;;8.49;79.93
67931;BME280;63902;52.000;5.954;2023-04-19T01:22:42;102327.00;;;8.47;79.52
67931;BME280;63902;52.000;5.954;2023-04-19T01:23:43;102337.59;;;8.47;79.67
67931;BME280;63902;52.000;5.954;2023-04-19T01:24:44;102290.13;;;8.25;79.83
67931;BME280;63902;52.000;5.954;2023-04-19T01:25:44;102325.28;;;8.46;78.96
67931;BME280;63902;52.000;5.954;2023-04-19T01:26:44;102333.19;;;8.44;79.70
67931;BME280;63902;52.000;5.954;2023-04-19T01:27:45;102335.84;;;8.44;79.83
67931;BME280;63902;52.000;5.954;2023-04-19T01:28:45;102320.00;;;8.40;80.17
67931;BME280;63902;52.000;5.954;2023-04-19T01:29:46;102309.50;;;8.27;79.89
67931;BME280;63902;52.000;5.954;2023-04-19T01:30:46;102322.69;;;8.35;79.42
67931;BME280;63902;52.000;5.954;2023-04-19T01:31:47;102333.22;;;8.38;79.26
67931;BME280;63902;52.000;5.954;2023-04-19T01:32:47;102333.22;;;8.38;81.33
67931;BME280;63902;52.000;5.954;2023-04-19T01:33:48;102326.16;;;8.37;80.18
67931;BME280;63902;52.000;5.954;2023-04-19T01:34:51;102326.25;;;8.29;79.31
67931;BME280;63902;52.000;5.954;2023-04-19T01:35:51;102338.53;;;8.34;79.45
67931;BME280;63902;52.000;5.954;2023-04-19T01:36:52;102329.72;;;8.32;79.79
67931;BME280;63902;52.000;5.954;2023-04-19T01:37:54;102333.31;;;8.29;80.34
67931;BME280;63902;52.000;5.954;2023-04-19T01:38:54;102330.66;;;8.27;80.15
67931;BME280;63902;52.000;5.954;2023-04-19T01:39:55;102310.47;;;8.19;79.69
67931;BME280;63902;52.000;5.954;2023-04-19T01:40:55;102335.97;;;8.24;79.95
67931;BME280;63902;52.000;5.954;2023-04-19T01:41:56;102333.31;;;8.24;80.50
67931;BME280;63902;52.000;5.954;2023-04-19T01:42:56;102312.28;;;8.11;80.46
67931;BME280;63902;52.000;5.954;2023-04-19T01:43:57;102328.94;;;8.23;79.96
67931;BME280;63902;52.000;5.954;2023-04-19T01:44:57;102329.81;;;8.22;81.07
67931;BME280;63902;52.000;5.954;2023-04-19T01:45:58;102336.00;;;8.21;80.22
67931;BME280;63902;52.000;5.954;2023-04-19T01:46:58;102337.75;;;8.19;80.01
67931;BME280;63902;52.000;5.954;2023-04-19T01:47:59;102329.81;;;8.19;81.88
67931;BME280;63902;52.000;5.954;2023-04-19T01:48:59;102337.72;;;8.22;80.79
67931;BME280;63902;52.000;5.954;2023-04-19T01:50:00;102318.44;;;8.11;79.98
67931;BME280;63902;52.000;5.954;2023-04-19T01:51:00;102342.16;;;8.20;81.01
67931;BME280;63902;52.000;5.954;2023-04-19T01:52:01;102330.69;;;8.20;81.01
67931;BME280;63902;52.000;5.954;2023-04-19T01:53:03;102334.25;;;8.19;80.40
67931;BME280;63902;52.000;5.954;2023-04-19T01:54:03;102323.72;;;8.13;81.19
67931;BME280;63902;52.000;5.954;2023-04-19T01:55:04;102333.41;;;8.15;80.79
67931;BME280;63902;52.000;5.954;2023-04-19T01:56:05;102330.75;;;8.14;81.16
67931;BME280;63902;52.000;5.954;2023-04-19T01:57:06;102295.66;;;7.93;81.32
67931;BME280;63902;52.000;5.954;2023-04-19T01:58:06;102328.16;;;8.07;80.71
67931;BME280;63902;52.000;5.954;2023-04-19T01:59:07;102338.72;;;8.07;80.46
67931;BME280;63902;52.000;5.954;2023-04-19T02:00:08;102315.91;;;7.94;80.23
67931;BME280;63902;52.000;5.954;2023-04-19T02:01:09;102336.97;;;8.05;80.14
67931;BME280;63902;52.000;5.954;2023-04-19T02:02:10;102334.34;;;8.02;80.08
67931;BME280;63902;52.000;5.954;2023-04-19T02:03:10;102329.09;;;7.99;80.77
67931;BME280;63902;52.000;5.954;2023-04-19T02:04:11;102333.47;;;8.01;81.49
67931;BME280;63902;52.000;5.954;2023-04-19T02:05:11;102308.00;;;7.90;81.04
67931;BME280;63902;52.000;5.954;2023-04-19T02:06:12;102333.47;;;8.00;80.69
67931;BME280;63902;52.000;5.954;2023-04-19T02:07:13;102326.44;;;7.99;81.23
67931;BME280;63902;52.000;5.954;2023-04-19T02:08:15;102322.03;;;7.98;80.63
67931;BME280;63902;52.000;5.954;2023-04-19T02:09:15;102322.94;;;7.98;81.01
67931;BME280;63902;52.000;5.954;2023-04-19T02:10:16;102323.81;;;7.99;81.86
67931;BME280;63902;52.000;5.954;2023-04-19T02:11:16;102316.75;;;7.99;82.39
67931;BME280;63902;52.000;5.954;2023-04-19T02:12:17;102286.91;;;7.80;81.05
67931;BME280;63902;52.000;5.954;2023-04-19T02:13:17;102300.94;;;7.92;81.25
67931;BME280;63902;52.000;5.954;2023-04-19T02:14:18;102319.41;;;7.99;81.04
67931;BME280;63902;52.000;5.954;2023-04-19T02:15:18;102319.38;;;7.98;80.93
67931;BME280;63902;52.000;5.954;2023-04-19T02:16:19;102321.16;;;7.97;81.27
67931;BME280;63902;52.000;5.954;2023-04-19T02:17:19;102294.81;;;7.83;81.49
67931;BME280;63902;52.000;5.954;2023-04-19T02:18:20;102313.22;;;7.97;82.63
67931;BME280;63902;52.000;5.954;2023-04-19T02:19:20;102324.66;;;8.02;81.50
67931;BME280;63902;52.000;5.954;2023-04-19T02:20:21;102320.25;;;8.03;83.40
67931;BME280;63902;52.000;5.954;2023-04-19T02:21:21;102311.44;;;8.02;83.39
67931;BME280;63902;52.000;5.954;2023-04-19T02:22:22;102325.47;;;8.12;81.42
67931;BME280;63902;52.000;5.954;2023-04-19T02:23:24;102325.47;;;8.14;82.33
67931;BME280;63902;52.000;5.954;2023-04-19T02:24:24;102319.28;;;8.16;82.91
67931;BME280;63902;52.000;5.954;2023-04-19T02:25:25;102323.66;;;8.17;82.51
67931;BME280;63902;52.000;5.954;2023-04-19T02:26:25;102324.53;;;8.19;81.44
67931;BME280;63902;52.000;5.954;2023-04-19T02:27:26;102327.19;;;8.19;81.19
67931;BME280;63902;52.000;5.954;2023-04-19T02:28:26;102316.63;;;8.19;82.89
67931;BME280;63902;52.000;5.954;2023-04-19T02:29:27;102320.13;;;8.21;81.86
67931;BME280;63902;52.000;5.954;2023-04-19T02:30:27;102315.75;;;8.16;82.58
67931;BME280;63902;52.000;5.954;2023-04-19T02:31:28;102299.06;;;8.09;80.91
67931;BME280;63902;52.000;5.954;2023-04-19T02:32:28;102322.75;;;8.24;81.36
67931;BME280;63902;52.000;5.954;2023-04-19T02:33:29;102327.16;;;8.22;80.86
67931;BME280;63902;52.000;5.954;2023-04-19T02:34:29;102324.53;;;8.24;80.73
67931;BME280;63902;52.000;5.954;2023-04-19T02:35:30;102326.25;;;8.25;80.39
67931;BME280;63902;52.000;5.954;2023-04-19T02:36:30;102325.41;;;8.24;83.25
67931;BME280;63902;52.000;5.954;2023-04-19T02:37:31;102325.38;;;8.27;81.51
67931;BME280;63902;52.000;5.954;2023-04-19T02:38:33;102325.38;;;8.27;82.38
67931;BME280;63902;52.000;5.954;2023-04-19T02:39:33;102320.97;;;8.29;81.51
67931;BME280;63902;52.000;5.954;2023-04-19T02:40:34;102322.69;;;8.32;82.45
67931;BME280;63902;52.000;5.954;2023-04-19T02:41:34;102322.66;;;8.34;81.92
67931;BME280;63902;52.000;5.954;2023-04-19T02:42:35;102295.50;;;8.18;81.36
67931;BME280;63902;52.000;5.954;2023-04-19T02:43:35;102319.22;;;8.27;82.21
67931;BME280;63902;52.000;5.954;2023-04-19T02:44:36;102325.31;;;8.34;81.42
67931;BME280;63902;52.000;5.954;2023-04-19T02:45:36;102305.16;;;8.23;81.55
67931;BME280;63902;52.000;5.954;2023-04-19T02:46:37;102320.09;;;8.29;81.14
67931;BME280;63902;52.000;5.954;2023-04-19T02:47:37;102323.56;;;8.33;81.20
67931;BME280;63902;52.000;5.954;2023-04-19T02:48:37;102325.31;;;8.34;81.46
67931;BME280;63902;52.000;5.954;2023-04-19T02:49:38;102322.69;;;8.35;82.52
67931;BME280;63902;52.000;5.954;2023-04-19T02:50:38;102293.72;;;8.18;82.05
67931;BME280;63902;52.000;5.954;2023-04-19T02:51:39;102328.84;;;8.36;81.29
67931;BME280;63902;52.000;5.954;2023-04-19T02:52:39;102333.25;;;8.34;81.21
67931;BME280;63902;52.000;5.954;2023-04-19T02:53:41;102320.06;;;8.30;82.09
67931;BME280;63902;52.000;5.954;2023-04-19T02:54:42;102327.94;;;8.37;80.76
67931;BME280;63902;52.000;5.954;2023-04-19T02:55:42;102330.56;;;8.37;81.30
67931;BME280;63902;52.000;5.954;2023-04-19T02:56:43;102321.78;;;8.38;81.74
67931;BME280;63902;52.000;5.954;2023-04-19T02:57:43;102325.28;;;8.37;80.80
67931;BME280;63902;52.000;5.954;2023-04-19T02:58:44;102327.94;;;8.38;81.12
67931;BME280;63902;52.000;5.954;2023-04-19T02:59:44;102326.19;;;8.39;81.18
67931;BME280;63902;52.000;5.954;2023-04-19T03:00:45;102315.63;;;8.36;81.60
67931;BME280;63902;52.000;5.954;2023-04-19T03:01:46;102322.66;;;8.37;80.16
67931;BME280;63902;52.000;5.954;2023-04-19T03:02:46;102335.88;;;8.40;80.99
67931;BME280;63902;52.000;5.954;2023-04-19T03:03:47;102306.88;;;8.24;81.43
67931;BME280;63902;52.000;5.954;2023-04-19T03:04:47;102307.75;;;8.26;81.07
67931;BME280;63902;52.000;5.954;2023-04-19T03:05:48;102301.59;;;8.24;80.25
67931;BME280;63902;52.000;5.954;2023-04-19T03:06:49;102332.34;;;8.41;81.68
67931;BME280;63902;52.000;5.954;2023-04-19T03:07:50;102291.94;;;8.20;80.96
67931;BME280;63902;52.000;5.954;2023-04-19T03:08:52;102312.97;;;8.36;80.68
67931;BME280;63902;52.000;5.954;2023-04-19T03:09:52;102327.06;;;8.39;81.41
67931;BME280;63902;52.000;5.954;2023-04-19T03:10:53;102318.25;;;8.42;80.90
67931;BME280;63902;52.000;5.954;2023-04-19T03:11:53;102330.56;;;8.43;80.91
67931;BME280;63902;52.000;5.954;2023-04-19T03:12:54;102330.56;;;8.43;81.55
67931;BME280;63902;52.000;5.954;2023-04-19T03:13:54;102322.63;;;8.43;80.63
67931;BME280;63902;52.000;5.954;2023-04-19T03:14:55;102322.66;;;8.40;82.08
67931;BME280;63902;52.000;5.954;2023-04-19T03:15:55;102329.69;;;8.44;81.38
67931;BME280;63902;52.000;5.954;2023-04-19T03:16:56;102319.13;;;8.39;81.14
67931;BME280;63902;52.000;5.954;2023-04-19T03:17:56;102310.34;;;8.33;81.96
67931;BME280;63902;52.000;5.954;2023-04-19T03:18:57;102336.75;;;8.43;81.53
67931;BME280;63902;52.000;5.954;2023-04-19T03:19:57;102288.41;;;8.21;80.96
67931;BME280;63902;52.000;5.954;2023-04-19T03:20:58;102324.41;;;8.42;81.67
67931;BME280;63902;52.000;5.954;2023-04-19T03:21:58;102331.47;;;8.43;81.47
67931;BME280;63902;52.000;5.954;2023-04-19T03:22:59;102324.41;;;8.38;81.94
67931;BME280;63902;52.000;5.954;2023-04-19T03:24:01;102315.59;;;8.37;81.52
67931;BME280;63902;52.000;5.954;2023-04-19T03:25:01;102325.28;;;8.44;81.57
67931;BME280;63902;52.000;5.954;2023-04-19T03:26:01;102291.06;;;8.21;81.07
67931;BME280;63902;52.000;5.954;2023-04-19T03:27:02;102321.75;;;8.44;80.73
67931;BME280;63902;52.000;5.954;2023-04-19T03:28:03;102324.41;;;8.44;81.10
67931;BME280;63902;52.000;5.954;2023-04-19T03:29:03;102320.88;;;8.43;80.84
67931;BME280;63902;52.000;5.954;2023-04-19T03:30:05;102321.75;;;8.42;80.24
67931;BME280;63902;52.000;5.954;2023-04-19T03:31:06;102323.53;;;8.42;81.23
67931;BME280;63902;52.000;5.954;2023-04-19T03:32:07;102314.69;;;8.43;80.95
67931;BME280;63902;52.000;5.954;2023-04-19T03:33:08;102308.56;;;8.39;81.11
67931;BME280;63902;52.000;5.954;2023-04-19T03:34:08;102320.91;;;8.40;81.04
67931;BME280;63902;52.000;5.954;2023-04-19T03:35:09;102318.28;;;8.40;80.76
67931;BME280;63902;52.000;5.954;2023-04-19T03:36:09;102289.28;;;8.20;80.85
67931;BME280;63902;52.000;5.954;2023-04-19T03:37:10;102327.06;;;8.38;81.17
67931;BME280;63902;52.000;5.954;2023-04-19T03:38:10;102318.25;;;8.36;80.67
67931;BME280;63902;52.000;5.954;2023-04-19T03:39:12;102321.78;;;8.38;80.91
67931;BME280;63902;52.000;5.954;2023-04-19T03:40:13;102324.41;;;8.38;81.32
67931;BME280;63902;52.000;5.954;2023-04-19T03:41:19;102320.00;;;8.37;81.03
67931;BME280;63902;52.000;5.954;2023-04-19T03:42:20;102312.09;;;8.35;81.13
67931;BME280;63902;52.000;5.954;2023-04-19T03:43:21;102327.94;;;8.37;80.88
67931;BME280;63902;52.000;5.954;2023-04-19T03:44:21;102322.66;;;8.34;81.33
67931;BME280;63902;52.000;5.954;2023-04-19T03:45:22;102320.03;;;8.34;81.07
67931;BME280;63902;52.000;5.954;2023-04-19T03:46:22;102304.25;;;8.23;80.82
67931;BME280;63902;52.000;5.954;2023-04-19T03:47:23;102330.63;;;8.32;80.26
67931;BME280;63902;52.000;5.954;2023-04-19T03:48:23;102327.13;;;8.28;80.21
67931;BME280;63902;52.000;5.954;2023-04-19T03:49:24;102328.00;;;8.29;80.47
67931;BME280;63902;52.000;5.954;2023-04-19T03:50:25;102326.25;;;8.28;80.19
67931;BME280;63902;52.000;5.954;2023-04-19T03:51:25;102335.94;;;8.27;80.79
67931;BME280;63902;52.000;5.954;2023-04-19T03:52:26;102333.28;;;8.26;80.54
67931;BME280;63902;52.000;5.954;2023-04-19T03:53:26;102325.41;;;8.21;80.23
67931;BME280;63902;52.000;5.954;2023-04-19T03:54:28;102335.97;;;8.23;81.01
67931;BME280;63902;52.000;5.954;2023-04-19T03:55:28;102285.97;;;7.94;80.51
67931;BME280;63902;52.000;5.954;2023-04-19T03:56:29;102327.19;;;8.19;80.94
67931;BME280;63902;52.000;5.954;2023-04-19T03:57:29;102311.41;;;8.10;80.42
67931;BME280;63902;52.000;5.954;2023-04-19T03:58:30;102328.94;;;8.17;80.34
67931;BME280;63902;52.000;5.954;2023-04-19T03:59:30;102332.50;;;8.16;80.15
67931;BME280;63902;52.000;5.954;2023-04-19T04:00:31;102336.03;;;8.14;80.48
67931;BME280;63902;52.000;5.954;2023-04-19T04:01:32;102329.88;;;8.12;81.00
67931;BME280;63902;52.000;5.954;2023-04-19T04:02:32;102331.69;;;8.10;80.18
67931;BME280;63902;52.000;5.954;2023-04-19T04:03:33;102338.72;;;8.07;80.18
67931;BME280;63902;52.000;5.954;2023-04-19T04:04:33;102327.31;;;8.04;80.06
67931;BME280;63902;52.000;5.954;2023-04-19T04:05:34;102322.91;;;8.00;80.39
67931;BME280;63902;52.000;5.954;2023-04-19T04:06:35;102331.72;;;8.02;80.29
67931;BME280;63902;52.000;5.954;2023-04-19T04:07:35;102326.44;;;7.99;80.32
67931;BME280;63902;52.000;5.954;2023-04-19T04:08:36;102331.72;;;7.99;80.34
67931;BME280;63902;52.000;5.954;2023-04-19T04:09:38;102326.47;;;7.94;80.19
67931;BME280;63902;52.000;5.954;2023-04-19T04:10:38;102328.22;;;7.97;80.31
67931;BME280;63902;52.000;5.954;2023-04-19T04:11:38;102329.13;;;7.96;80.30
67931;BME280;63902;52.000;5.954;2023-04-19T04:12:39;102302.78;;;7.77;80.02
67931;BME280;63902;52.000;5.954;2023-04-19T04:13:39;102325.63;;;7.88;79.88
67931;BME280;63902;52.000;5.954;2023-04-19T04:14:40;102319.50;;;7.81;80.11
67931;BME280;63902;52.000;5.954;2023-04-19T04:15:41;102326.53;;;7.85;80.49
67931;BME280;63902;52.000;5.954;2023-04-19T04:16:41;102336.19;;;7.89;80.25
67931;BME280;63902;52.000;5.954;2023-04-19T04:17:42;102343.25;;;7.87;80.00
67931;BME280;63902;52.000;5.954;2023-04-19T04:18:42;102334.44;;;7.87;80.17
67931;BME280;63902;52.000;5.954;2023-04-19T04:19:43;102328.28;;;7.83;80.05
67931;BME280;63902;52.000;5.954;2023-04-19T04:20:43;102323.94;;;7.76;80.48
67931;BME280;63902;52.000;5.954;2023-04-19T04:21:44;102329.22;;;7.74;79.89
67931;BME280;63902;52.000;5.954;2023-04-19T04:22:44;102332.72;;;7.78;79.96
67931;BME280;63902;52.000;5.954;2023-04-19T04:23:45;102331.81;;;7.80;80.05
67931;BME280;63902;52.000;5.954;2023-04-19T04:24:47;102307.28;;;7.60;79.95
67931;BME280;63902;52.000;5.954;2023-04-19T04:25:55;102339.78;;;7.77;80.10
67931;BME280;63902;52.000;5.954;2023-04-19T04:26:55;102323.09;;;7.71;80.02
67931;BME280;63902;52.000;5.954;2023-04-19T04:27:56;102318.72;;;7.62;80.04
67931;BME280;63902;52.000;5.954;2023-04-19T04:28:56;102338.91;;;7.74;80.16
67931;BME280;63902;52.000;5.954;2023-04-19T04:29:57;102337.13;;;7.73;80.07
67931;BME280;63902;52.000;5.954;2023-04-19T04:30:57;102339.78;;;7.73;79.81
67931;BME280;63902;52.000;5.954;2023-04-19T04:31:58;102332.78;;;7.69;79.72
67931;BME280;63902;52.000;5.954;2023-04-19T04:32:58;102334.53;;;7.68;79.92
67931;BME280;63902;52.000;5.954;2023-04-19T04:33:59;102332.78;;;7.66;79.83
67931;BME280;63902;52.000;5.954;2023-04-19T04:34:59;102330.16;;;7.64;80.41
67931;BME280;63902;52.000;5.954;2023-04-19T04:36:00;102334.53;;;7.67;80.04
67931;BME280;63902;52.000;5.954;2023-04-19T04:37:00;102325.75;;;7.61;79.92
67931;BME280;63902;52.000;5.954;2023-04-19T04:38:01;102331.91;;;7.63;79.50
67931;BME280;63902;52.000;5.954;2023-04-19T04:39:02;102332.81;;;7.62;80.01
67931;BME280;63902;52.000;5.954;2023-04-19T04:40:06;102330.16;;;7.61;79.54
67931;BME280;63902;52.000;5.954;2023-04-19T04:41:06;102329.28;;;7.60;80.10
67931;BME280;63902;52.000;5.954;2023-04-19T04:42:07;102332.81;;;7.61;79.47
67931;BME280;63902;52.000;5.954;2023-04-19T04:43:08;102329.31;;;7.59;79.61
67931;BME280;63902;52.000;5.954;2023-04-19T04:44:09;102327.53;;;7.58;79.41
67931;BME280;63902;52.000;5.954;2023-04-19T04:45:09;102319.66;;;7.49;79.68
67931;BME280;63902;52.000;5.954;2023-04-19T04:46:10;102320.53;;;7.52;79.65
67931;BME280;63902;52.000;5.954;2023-04-19T04:47:11;102295.06;;;7.36;79.43
67931;BME280;63902;52.000;5.954;2023-04-19T04:48:12;102330.22;;;7.52;79.53
67931;BME280;63902;52.000;5.954;2023-04-19T04:49:12;102329.31;;;7.50;79.45
67931;BME280;63902;52.000;5.954;2023-04-19T04:50:13;102327.59;;;7.49;79.75
67931;BME280;63902;52.000;5.954;2023-04-19T04:51:13;102317.06;;;7.43;79.82
67931;BME280;63902;52.000;5.954;2023-04-19T04:52:16;102328.47;;;7.46;79.50
67931;BME280;63902;52.000;5.954;2023-04-19T04:53:18;102331.09;;;7.45;79.40
67931;BME280;63902;52.000;5.954;2023-04-19T04:54:19;102326.72;;;7.39;79.87
67931;BME280;63902;52.000;5.954;2023-04-19T04:55:21;102333.75;;;7.45;79.78
67931;BME280;63902;52.000;5.954;2023-04-19T04:56:22;102333.75;;;7.45;79.99
67931;BME280;63902;52.000;5.954;2023-04-19T04:57:22;102324.09;;;7.40;80.20
67931;BME280;63902;52.000;5.954;2023-04-19T04:58:23;102326.75;;;7.37;79.96
67931;BME280;63902;52.000;5.954;2023-04-19T04:59:23;102326.75;;;7.34;79.77
67931;BME280;63902;52.000;5.954;2023-04-19T05:00:24;102312.69;;;7.25;80.00
67931;BME280;63902;52.000;5.954;2023-04-19T05:01:25;102311.84;;;7.21;79.79
67931;BME280;63902;52.000;5.954;2023-04-19T05:02:32;102337.31;;;7.36;79.78
67931;BME280;63902;52.000;5.954;2023-04-19T05:03:33;102337.31;;;7.34;80.20
67931;BME280;63902;52.000;5.954;2023-04-19T05:04:35;102329.41;;;7.31;80.22
67931;BME280;63902;52.000;5.954;2023-04-19T05:05:36;102333.78;;;7.31;80.08
67931;BME280;63902;52.000;5.954;2023-04-19T05:06:36;102328.53;;;7.28;80.21
67931;BME280;63902;52.000;5.954;2023-04-19T05:07:37;102339.97;;;7.31;79.96
67931;BME280;63902;52.000;5.954;2023-04-19T05:08:37;102340.84;;;7.30;79.62
67931;BME280;63902;52.000;5.954;2023-04-19T05:09:38;102343.47;;;7.32;80.34
67931;BME280;63902;52.000;5.954;2023-04-19T05:10:39;102339.97;;;7.31;79.72
67931;BME280;63902;52.000;5.954;2023-04-19T05:11:40;102338.22;;;7.29;80.02
67931;BME280;63902;52.000;5.954;2023-04-19T05:12:41;102331.19;;;7.23;79.94
67931;BME280;63902;52.000;5.954;2023-04-19T05:13:41;102341.75;;;7.26;79.99
67931;BME280;63902;52.000;5.954;2023-04-19T05:14:42;102338.22;;;7.24;79.79
67931;BME280;63902;52.000;5.954;2023-04-19T05:15:42;102331.22;;;7.20;79.77
67931;BME280;63902;52.000;5.954;2023-04-19T05:16:43;102332.06;;;7.19;79.40
67931;BME280;63902;52.000;5.954;2023-04-19T05:17:43;102341.75;;;7.23;79.74
67931;BME280;63902;52.000;5.954;2023-04-19T05:18:44;102332.97;;;7.18;79.66
67931;BME280;63902;52.000;5.954;2023-04-19T05:19:44;102332.97;;;7.18;79.63
67931;BME280;63902;52.000;5.954;2023-04-19T05:20:45;102321.56;;;7.10;79.47
67931;BME280;63902;52.000;5.954;2023-04-19T05:21:45;102309.28;;;6.98;79.88